Time;durP1;ratioP1;P1;durP2;ratioP2;P2;SDS_P1;SDS_P2;PMS_P1;PMS_P2;Temp;Humidity;BMP_temperature;BMP_pressure;BME280_temperature;BME280_humidity;BME280_pressure;Samples;Min_cycle;Max_cycle;Signal;HPM_P1;HPM_P2
2023/04/06 00:00:49;;;;;;;;;;;5.50;68.30;;;4.91;52.73;100807.28;5092478;28;20018;-76
2023/04/06 00:03:16;;;;;;;;;;;5.50;68.10;;;4.88;52.54;100802.34;5092664;28;19954;-76
2023/04/06 00:05:43;;;;;;;;;;;5.40;68.40;;;4.85;52.60;100797.38;5092485;28;19928;-74
2023/04/06 00:08:11;;;;;;;;;;;5.40;68.40;;;4.82;52.90;100794.22;5092326;28;19960;-74
2023/04/06 00:10:38;;;;;;;;;;;5.40;68.30;;;4.81;52.66;100796.03;5092399;28;19981;-76
2023/04/06 00:13:06;;;;;;;;;;;5.40;68.40;;;4.78;52.91;100796.41;5092444;28;19932;-75
2023/04/06 00:15:35;;;;;;;;;;;5.30;68.50;;;4.77;52.45;100791.25;5092214;28;19928;-77
2023/04/06 00:18:03;;;;;;;;;;;5.30;68.50;;;4.75;52.80;100791.44;5092215;28;19950;-75
2023/04/06 00:20:30;;;;;;;;;;;5.30;68.50;;;4.75;52.78;100787.97;5073952;28;20358;-76
2023/04/06 00:22:58;;;;;;;;;;;5.30;68.90;;;4.73;52.83;100782.00;5092229;28;19977;-76
2023/04/06 00:25:25;;;;;;;;;;;5.20;68.90;;;4.70;52.70;100785.81;5092076;28;19928;-75
2023/04/06 00:27:52;;;;;;;;;;;5.20;68.60;;;4.69;52.98;100783.34;5091428;28;19935;-75
2023/04/06 00:30:19;;;;;;;;;;;5.20;68.70;;;4.68;52.87;100789.59;5073621;28;19928;-77
2023/04/06 00:32:48;;;;;;;;;;;5.20;68.90;;;4.66;53.29;100776.56;5092060;28;19931;-76
2023/04/06 00:35:15;;;;;;;;;;;5.20;69.10;;;4.64;53.13;100779.38;5073599;28;19932;-74
2023/04/06 00:37:42;;;;;;;;;;;5.10;69.20;;;4.61;53.39;100774.41;5073488;28;19959;-76
2023/04/06 00:40:11;;;;;;;;;;;5.10;69.30;;;4.59;53.16;100772.94;5073490;28;19927;-75
2023/04/06 00:42:38;;;;;;;;;;;5.10;69.20;;;4.57;53.46;100767.81;5073487;28;20029;-74
2023/04/06 00:45:06;;;;;;;;;;;5.10;69.30;;;4.57;53.32;100769.63;5073345;28;19935;-74
2023/04/06 00:47:34;;;;;;;;;;;5.10;69.60;;;4.55;53.25;100768.97;5091636;28;19924;-77
2023/04/06 00:50:02;;;;;;;;;;;5.00;69.40;;;4.52;53.74;100764.84;5091601;28;19942;-76
2023/04/06 00:52:30;;;;;;;;;;;5.00;69.50;;;4.50;53.33;100766.00;5073142;28;19924;-77
2023/04/06 00:54:57;;;;;;;;;;;5.00;69.60;;;4.49;53.70;100762.53;5091493;28;19927;-75
2023/04/06 00:57:24;;;;;;;;;;;5.00;69.60;;;4.47;53.47;100756.59;5091387;28;19928;-74
2023/04/06 00:59:56;;;;;;;;;;;5.00;69.80;;;4.46;53.73;100756.75;5073198;28;19935;-75
2023/04/06 01:02:24;;;;;;;;;;;5.00;69.90;;;4.43;53.98;100755.25;5073100;28;19931;-75
2023/04/06 01:04:53;;;;;;;;;;;4.90;70.10;;;4.43;53.93;100746.50;5072875;28;19950;-75
2023/04/06 01:07:35;;;;;;;;;;;4.90;70.20;;;4.43;53.97;100741.22;5072810;28;19955;-76
2023/04/06 01:10:10;;;;;;;;;;;4.90;70.20;;;4.38;54.23;100739.06;5072898;28;19928;-75
2023/04/06 01:12:38;;;;;;;;;;;4.90;70.30;;;4.36;53.88;100733.97;5072778;28;19924;-74
2023/04/06 01:15:11;;;;;;;;;;;4.90;70.30;;;4.35;53.91;100736.78;5072800;28;20342;-75
2023/04/06 01:17:42;;;;;;;;;;;4.80;70.30;;;4.33;54.17;100733.47;5072800;28;19935;-75
2023/04/06 01:20:14;;;;;;;;;;;4.80;70.30;;;4.30;53.77;100737.28;5072798;28;19935;-76
2023/04/06 01:22:42;;;;;;;;;;;4.80;70.30;;;4.28;53.88;100730.50;5072832;28;19930;-76
2023/04/06 01:25:11;;;;;;;;;;;4.80;70.30;;;4.26;54.26;100730.66;5072579;28;19928;-76
2023/04/06 01:27:58;;;;;;;;;;;4.80;70.50;;;4.23;54.43;100728.34;5072506;28;20348;-74
2023/04/06 01:30:41;;;;;;;;;;;4.80;70.70;;;4.23;54.52;100720.41;5072591;28;19954;-76
2023/04/06 01:33:16;;;;;;;;;;;4.70;70.90;;;4.24;54.53;100718.59;5072630;28;19935;-75
2023/04/06 01:36:12;;;;;;;;;;;4.70;70.90;;;4.24;54.64;100713.31;5087336;28;20456;-76
2023/04/06 01:38:42;;;;;;;;;;;4.70;71.10;;;4.19;54.49;100711.19;5070869;28;19928;-76
2023/04/06 01:41:09;;;;;;;;;;;4.70;71.10;;;4.17;54.85;100714.97;5072292;28;19928;-74
2023/04/06 01:43:48;;;;;;;;;;;4.70;71.20;;;4.14;54.82;100713.47;5072390;28;20425;-75
2023/04/06 01:46:16;;;;;;;;;;;4.70;71.30;;;4.12;54.83;100713.66;5072216;28;20391;-76
2023/04/06 01:48:45;;;;;;;;;;;4.60;71.30;;;4.11;54.48;100712.00;5071982;28;19928;-75
2023/04/06 01:51:25;;;;;;;;;;;4.60;71.10;;;4.09;54.34;100707.88;5072266;28;19928;-75
2023/04/06 01:53:58;;;;;;;;;;;4.60;71.00;;;4.07;54.59;100713.31;5072369;28;20265;-76
2023/04/06 01:56:35;;;;;;;;;;;4.60;71.10;;;4.06;54.68;100713.50;5072060;28;19928;-78
2023/04/06 01:59:18;;;;;;;;;;;4.60;71.20;;;4.03;54.66;100708.53;5072122;28;19928;-74
2023/04/06 02:01:46;;;;;;;;;;;4.50;71.30;;;4.01;54.69;100708.69;5072107;28;19928;-74
2023/04/06 02:04:14;;;;;;;;;;;4.50;71.30;;;4.00;55.01;100706.19;5072101;28;19928;-77
2023/04/06 02:06:42;;;;;;;;;;;4.50;71.60;;;3.98;54.84;100710.81;5071973;28;20518;-77
2023/04/06 02:09:13;;;;;;;;;;;4.50;71.50;;;3.96;54.72;100707.53;5071806;28;20573;-75
2023/04/06 02:11:40;;;;;;;;;;;4.50;71.70;;;3.96;54.71;100705.72;5071758;28;19980;-75
2023/04/06 02:14:07;;;;;;;;;;;4.50;71.50;;;3.95;55.10;100704.03;5071925;28;19943;-75
2023/04/06 02:16:39;;;;;;;;;;;4.50;71.70;;;3.94;54.85;100709.50;5071738;28;19948;-76
2023/04/06 02:19:07;;;;;;;;;;;4.50;71.90;;;3.93;54.88;100699.94;5071569;28;20315;-74
2023/04/06 02:21:34;;;;;;;;;;;4.50;71.90;;;3.92;55.13;100698.28;5089903;28;20236;-75
2023/04/06 02:24:01;;;;;;;;;;;4.50;72.00;;;3.91;55.14;100705.38;5071708;28;19978;-76
2023/04/06 02:26:30;;;;;;;;;;;4.40;71.90;;;3.90;55.02;100698.44;5089922;28;19931;-77
2023/04/06 02:28:57;;;;;;;;;;;4.40;72.00;;;3.93;55.22;100705.22;5071469;28;19935;-75
2023/04/06 02:31:24;;;;;;;;;;;4.40;72.20;;;3.90;55.49;100705.53;5089943;28;20342;-74
2023/04/06 02:33:52;;;;;;;;;;;4.40;72.10;;;3.88;55.11;100698.59;5071804;28;19928;-78
2023/04/06 02:36:20;;;;;;;;;;;4.40;72.10;;;3.88;55.33;100695.13;5071544;28;19931;-76
2023/04/06 02:38:47;;;;;;;;;;;4.40;72.30;;;3.86;55.28;100697.94;5089781;28;20277;-74
2023/04/06 02:41:14;;;;;;;;;;;4.40;72.30;;;3.85;55.16;100693.63;5089840;28;19928;-74
2023/04/06 02:43:42;;;;;;;;;;;4.40;72.10;;;3.84;55.16;100692.00;5071587;28;19928;-76
2023/04/06 02:46:33;;;;;;;;;;;4.40;72.10;;;3.83;55.47;100689.53;5071153;28;19928;-75
2023/04/06 02:49:00;;;;;;;;;;;4.30;72.20;;;3.81;55.65;100687.06;5089457;28;20387;-75
2023/04/06 02:51:29;;;;;;;;;;;4.30;72.40;;;3.79;55.42;100682.91;5075404;28;19932;-75
2023/04/06 02:54:06;;;;;;;;;;;4.30;72.50;;;3.77;55.44;100687.53;5075442;28;19928;-76
2023/04/06 02:56:33;;;;;;;;;;;4.30;72.50;;;3.78;55.82;100686.56;5075376;28;19928;-74
2023/04/06 02:59:02;;;;;;;;;;;4.30;72.70;;;3.78;55.83;100678.63;5075414;28;19935;-76
2023/04/06 03:01:32;;;;;;;;;;;4.30;72.80;;;3.78;55.57;100681.28;5075421;28;20471;-76
2023/04/06 03:04:03;;;;;;;;;;;4.30;72.80;;;3.76;55.64;100681.44;5075622;28;20049;-76
2023/04/06 03:06:31;;;;;;;;;;;4.30;72.90;;;3.76;55.93;100681.44;5075306;28;20020;-76
2023/04/06 03:09:07;;;;;;;;;;;4.30;73.10;;;3.77;55.94;100683.09;5075193;28;19928;-75
2023/04/06 03:11:34;;;;;;;;;;;4.30;73.30;;;3.78;55.77;100678.63;5075181;28;19988;-74
2023/04/06 03:14:03;;;;;;;;;;;4.30;72.90;;;3.80;55.67;100684.56;5075309;28;19927;-76
2023/04/06 03:16:30;;;;;;;;;;;4.30;72.90;;;3.78;55.91;100676.00;5093336;28;20300;-78
2023/04/06 03:18:58;;;;;;;;;;;4.30;73.10;;;3.78;56.11;100676.00;5074882;28;19935;-76
2023/04/06 03:21:25;;;;;;;;;;;4.30;73.00;;;3.77;56.01;100679.63;5093225;28;19931;-74
2023/04/06 03:23:53;;;;;;;;;;;4.20;73.20;;;3.77;55.95;100674.34;5093222;28;19981;-75
2023/04/06 03:26:22;;;;;;;;;;;4.30;73.30;;;3.77;56.52;100674.34;5093073;28;20353;-76
2023/04/06 03:28:50;;;;;;;;;;;4.30;73.70;;;3.77;56.16;100679.63;5074704;28;19924;-77
2023/04/06 03:31:19;;;;;;;;;;;4.30;73.70;;;3.77;56.32;100669.91;5092694;28;19928;-75
2023/04/06 03:33:51;;;;;;;;;;;4.30;73.70;;;3.77;56.42;100674.34;5093283;28;20673;-75
2023/04/06 03:36:25;;;;;;;;;;;4.30;73.40;;;3.76;56.35;100678.00;5074438;28;19943;-75
2023/04/06 03:38:54;;;;;;;;;;;4.30;73.30;;;3.74;56.05;100672.03;5074629;28;19932;-76
2023/04/06 03:41:21;;;;;;;;;;;4.30;73.30;;;3.72;56.41;100676.66;5074680;28;19931;-74
2023/04/06 03:43:56;;;;;;;;;;;4.30;73.30;;;3.69;56.37;100677.78;5074707;28;19935;-74
2023/04/06 03:46:24;;;;;;;;;;;4.20;73.40;;;3.69;56.23;100679.59;5092918;28;19928;-75
2023/04/06 03:48:54;;;;;;;;;;;4.20;73.50;;;3.66;56.00;100678.13;5092805;28;19928;-76
2023/04/06 03:51:23;;;;;;;;;;;4.20;73.30;;;3.65;56.11;100680.91;5074328;28;19932;-77
2023/04/06 03:53:50;;;;;;;;;;;4.10;73.20;;;3.63;56.06;100683.72;5074424;28;19935;-75
2023/04/06 03:56:17;;;;;;;;;;;4.20;73.30;;;3.61;56.26;100681.25;5074249;28;19986;-76
2023/04/06 03:58:44;;;;;;;;;;;4.10;73.20;;;3.60;56.23;100684.84;5092566;28;19935;-75
2023/04/06 04:01:12;;;;;;;;;;;4.20;73.50;;;3.59;56.24;100677.94;5073322;28;20403;-75
2023/04/06 04:03:40;;;;;;;;;;;4.10;73.60;;;3.58;56.45;100680.72;5092629;28;19981;-75
2023/04/06 04:06:07;;;;;;;;;;;4.10;73.50;;;3.57;56.29;100679.09;5092433;28;19931;-75
2023/04/06 04:08:35;;;;;;;;;;;4.10;73.70;;;3.54;56.62;100677.59;5074001;28;20046;-78
2023/04/06 04:11:02;;;;;;;;;;;4.10;73.80;;;3.55;56.43;100684.50;5074094;28;19928;-75
2023/04/06 04:13:29;;;;;;;;;;;4.10;74.00;;;3.55;56.72;100684.50;5074132;28;20018;-76
2023/04/06 04:15:57;;;;;;;;;;;4.10;74.20;;;3.57;56.92;100684.38;5092333;28;19928;-77
2023/04/06 04:18:25;;;;;;;;;;;4.10;74.30;;;3.57;56.51;100681.72;5073977;28;19928;-75
2023/04/06 04:20:53;;;;;;;;;;;4.10;74.10;;;3.55;56.70;100681.88;5092286;28;19928;-75
2023/04/06 04:23:22;;;;;;;;;;;4.10;73.90;;;3.56;56.71;100682.69;5073999;28;19935;-77
2023/04/06 04:25:50;;;;;;;;;;;4.10;73.90;;;3.54;56.61;100676.75;5073884;28;19928;-77
2023/04/06 04:28:18;;;;;;;;;;;4.10;74.10;;;3.56;56.70;100677.41;5073669;28;19928;-76
2023/04/06 04:30:46;;;;;;;;;;;4.10;74.10;;;3.55;56.64;100675.78;5073625;28;20015;-76
2023/04/06 04:33:14;;;;;;;;;;;4.10;74.00;;;3.55;56.41;100676.59;5073789;28;19971;-74
2023/04/06 04:35:42;;;;;;;;;;;4.10;73.70;;;3.54;56.74;100668.84;5073602;28;19935;-75
2023/04/06 04:38:14;;;;;;;;;;;4.10;73.90;;;3.52;56.76;100674.28;5073388;28;19928;-75
2023/04/06 04:40:44;;;;;;;;;;;4.10;74.10;;;3.50;56.60;100672.78;5073655;28;19928;-77
2023/04/06 04:43:12;;;;;;;;;;;4.00;73.80;;;3.50;56.59;100672.78;5073708;28;19950;-74
2023/04/06 04:45:40;;;;;;;;;;;4.00;73.90;;;3.50;56.56;100678.88;5073348;28;19928;-76
2023/04/06 04:48:26;;;;;;;;;;;4.00;74.00;;;3.49;56.56;100671.16;5073423;28;19935;-76
2023/04/06 04:50:58;;;;;;;;;;;4.00;73.70;;;3.48;56.49;100669.50;5073082;28;19928;-77
2023/04/06 04:53:31;;;;;;;;;;;4.00;73.80;;;3.46;56.62;100669.63;5073522;28;20005;-77
2023/04/06 04:56:05;;;;;;;;;;;4.00;73.80;;;3.45;56.42;100668.00;5073214;28;19971;-76
2023/04/06 04:58:32;;;;;;;;;;;4.00;73.70;;;3.44;56.70;100668.97;5073166;28;19935;-74
2023/04/06 05:01:01;;;;;;;;;;;4.00;73.80;;;3.42;56.43;100667.50;5073108;28;19999;-75
2023/04/06 05:03:28;;;;;;;;;;;3.90;73.70;;;3.44;56.44;100665.53;5073041;28;19993;-76
2023/04/06 05:06:06;;;;;;;;;;;3.90;73.90;;;3.43;56.86;100671.78;5072957;28;19932;-75
2023/04/06 05:08:38;;;;;;;;;;;3.90;74.00;;;3.42;56.75;100670.97;5072830;28;20388;-75
2023/04/06 05:11:06;;;;;;;;;;;3.90;74.20;;;3.41;56.70;100671.94;5072856;28;19928;-75
2023/04/06 05:13:37;;;;;;;;;;;3.90;74.10;;;3.41;57.05;100666.66;5072907;28;19940;-76
2023/04/06 05:16:10;;;;;;;;;;;3.90;74.30;;;3.42;57.17;100665.69;5072746;28;19932;-74
2023/04/06 05:18:37;;;;;;;;;;;3.90;74.50;;;3.44;57.15;100663.72;5072668;28;19928;-75
2023/04/06 05:21:06;;;;;;;;;;;4.00;74.70;;;3.45;57.47;100665.34;5072564;28;20557;-76
2023/04/06 05:23:45;;;;;;;;;;;4.00;74.70;;;3.47;57.05;100668.69;5072537;28;20018;-77
2023/04/06 05:26:12;;;;;;;;;;;4.00;74.70;;;3.46;57.36;100667.00;5091032;28;20356;-77
2023/04/06 05:28:39;;;;;;;;;;;4.00;74.70;;;3.49;57.39;100664.06;5090881;28;19932;-76
2023/04/06 05:31:07;;;;;;;;;;;4.00;74.90;;;3.53;57.44;100672.47;5072479;28;19992;-78
2023/04/06 05:33:44;;;;;;;;;;;4.00;74.90;;;3.56;57.41;100673.00;5072635;28;20431;-75
2023/04/06 05:36:15;;;;;;;;;;;4.10;75.20;;;3.60;57.56;100669.03;5072395;28;19928;-76
2023/04/06 05:38:46;;;;;;;;;;;4.10;75.10;;;3.66;57.67;100666.72;5072074;28;20079;-77
2023/04/06 05:41:33;;;;;;;;;;;4.10;75.20;;;3.70;57.77;100668.88;5090538;28;20403;-77
2023/04/06 05:44:00;;;;;;;;;;;4.20;75.40;;;3.73;57.70;100668.56;5072519;28;19936;-76
2023/04/06 05:46:28;;;;;;;;;;;4.20;75.40;;;3.76;57.75;100656.88;5072474;28;20309;-76
2023/04/06 05:48:58;;;;;;;;;;;4.30;75.40;;;3.80;57.87;100663.47;5072195;28;20319;-74
2023/04/06 05:51:29;;;;;;;;;;;4.30;75.40;;;3.84;57.64;100670.06;5072125;28;20319;-76
2023/04/06 05:53:57;;;;;;;;;;;4.40;75.30;;;3.88;57.75;100669.59;5090692;28;19928;-74
2023/04/06 05:56:25;;;;;;;;;;;4.40;75.40;;;3.94;58.03;100670.75;5072247;28;20340;-74
2023/04/06 05:58:52;;;;;;;;;;;4.50;75.60;;;3.98;58.20;100665.97;5072145;28;19932;-76
2023/04/06 06:01:25;;;;;;;;;;;4.50;75.80;;;4.04;57.86;100663.50;5072181;28;20027;-78
2023/04/06 06:03:52;;;;;;;;;;;4.60;75.30;;;4.10;57.54;100669.97;5090588;28;20307;-77
2023/04/06 06:06:20;;;;;;;;;;;4.60;75.00;;;4.16;57.43;100668.47;5072036;28;20428;-75
2023/04/06 06:09:03;;;;;;;;;;;4.60;74.70;;;4.19;57.29;100668.94;5071789;28;19932;-75
2023/04/06 06:11:33;;;;;;;;;;;4.70;74.70;;;4.22;57.18;100665.16;5071834;28;19934;-75
2023/04/06 06:14:00;;;;;;;;;;;4.80;74.70;;;4.27;57.04;100662.84;5072000;28;19928;-75
2023/04/06 06:16:28;;;;;;;;;;;4.80;74.50;;;4.31;57.04;100664.19;5071840;28;20015;-75
2023/04/06 06:18:55;;;;;;;;;;;4.80;74.50;;;4.36;57.18;100664.50;5090087;28;19928;-74
2023/04/06 06:21:22;;;;;;;;;;;4.80;74.40;;;4.39;57.29;100657.09;5089900;28;20366;-77
2023/04/06 06:23:50;;;;;;;;;;;4.90;74.40;;;4.44;57.14;100661.88;5071854;28;19935;-75
2023/04/06 06:26:21;;;;;;;;;;;4.90;74.40;;;4.49;56.87;100662.19;5071740;28;19924;-77
2023/04/06 06:28:49;;;;;;;;;;;5.00;74.40;;;4.55;56.97;100664.16;5071820;28;19928;-78
2023/04/06 06:31:20;;;;;;;;;;;5.00;74.50;;;4.60;57.19;100661.84;5090012;28;19928;-74
2023/04/06 06:33:50;;;;;;;;;;;5.10;74.50;;;4.67;56.82;100666.44;5090152;28;19927;-75
2023/04/06 06:36:17;;;;;;;;;;;5.20;74.40;;;4.74;56.93;100667.44;5071576;28;19928;-75
2023/04/06 06:38:45;;;;;;;;;;;5.20;74.30;;;4.80;57.21;100670.22;5071647;28;19937;-75
2023/04/06 06:41:12;;;;;;;;;;;5.30;74.40;;;4.86;56.92;100669.53;5071576;28;19924;-75
2023/04/06 06:43:41;;;;;;;;;;;5.40;74.40;;;4.97;56.83;100667.53;5071610;28;19928;-75
2023/04/06 06:46:10;;;;;;;;;;;5.50;74.20;;;5.07;57.19;100661.03;5071329;28;19934;-76
2023/04/06 06:48:37;;;;;;;;;;;5.60;74.10;;;5.19;56.43;100669.44;5071469;28;20018;-76
2023/04/06 06:51:05;;;;;;;;;;;5.80;73.70;;;5.29;56.56;100659.47;5071197;28;19924;-76
2023/04/06 06:53:32;;;;;;;;;;;5.90;73.90;;;5.43;57.27;100653.47;5071555;28;19935;-76
2023/04/06 06:55:59;;;;;;;;;;;6.00;74.20;;;5.55;57.18;100651.25;5089714;28;20297;-76
2023/04/06 06:58:26;;;;;;;;;;;6.20;74.30;;;5.72;56.06;100651.16;5071342;28;19935;-75
2023/04/06 07:00:58;;;;;;;;;;;6.30;72.90;;;5.83;55.88;100653.41;5071309;28;19928;-76
2023/04/06 07:03:26;;;;;;;;;;;6.40;72.20;;;5.98;55.40;100656.97;5071497;28;20020;-74
2023/04/06 07:05:54;;;;;;;;;;;6.60;72.30;;;6.12;55.33;100650.91;5071403;28;19928;-75
2023/04/06 07:08:24;;;;;;;;;;;6.80;71.30;;;6.29;55.02;100659.53;5071151;28;19928;-75
2023/04/06 07:10:52;;;;;;;;;;;6.90;71.20;;;6.43;54.29;100656.09;5071382;28;19939;-75
2023/04/06 07:13:22;;;;;;;;;;;7.10;69.90;;;6.56;53.50;100650.19;5071370;28;19928;-78
2023/04/06 07:15:50;;;;;;;;;;;7.20;69.20;;;6.73;51.75;100656.13;5071242;28;19928;-76
2023/04/06 07:18:19;;;;;;;;;;;7.40;67.20;;;6.90;50.33;100644.38;5071022;28;20392;-75
2023/04/06 07:20:47;;;;;;;;;;;7.60;65.20;;;7.11;49.86;100648.94;5071124;28;19928;-77
2023/04/06 07:23:15;;;;;;;;;;;7.70;64.60;;;7.29;48.93;100647.72;5071239;28;19936;-76
2023/04/06 07:25:43;;;;;;;;;;;7.90;63.60;;;7.47;48.02;100640.19;5071237;28;20036;-76
2023/04/06 07:28:10;;;;;;;;;;;8.10;62.50;;;7.64;46.61;100643.44;5089470;28;19924;-76
2023/04/06 07:30:38;;;;;;;;;;;8.30;60.70;;;7.82;47.63;100645.69;5070829;28;19928;-76
2023/04/06 07:33:06;;;;;;;;;;;8.50;61.80;;;7.96;47.38;100642.16;5071042;28;19934;-75
2023/04/06 07:35:37;;;;;;;;;;;8.60;61.60;;;8.12;46.93;100635.75;5071030;28;19928;-75
2023/04/06 07:38:05;;;;;;;;;;;8.80;60.40;;;8.24;46.23;100637.69;5092319;28;20289;-76
2023/04/06 07:40:33;;;;;;;;;;;9.00;59.50;;;8.40;47.17;100633.97;5075006;28;19935;-76
2023/04/06 07:43:01;;;;;;;;;;;9.10;61.00;;;8.55;45.59;100633.06;5074877;28;19973;-75
2023/04/06 07:45:29;;;;;;;;;;;9.30;58.70;;;8.65;46.41;100634.34;5074698;28;20390;-76
2023/04/06 07:47:57;;;;;;;;;;;9.40;59.50;;;8.76;45.17;100627.66;5074666;28;19932;-76
2023/04/06 07:50:26;;;;;;;;;;;9.60;57.80;;;8.83;44.87;100622.38;5074565;28;20019;-76
2023/04/06 07:52:55;;;;;;;;;;;9.60;57.00;;;8.93;44.50;100626.34;5074921;28;19932;-77
2023/04/06 07:55:23;;;;;;;;;;;9.70;56.90;;;9.05;43.23;100628.44;5074675;28;19989;-75
2023/04/06 07:57:50;;;;;;;;;;;9.80;54.90;;;9.17;43.76;100619.69;5092848;28;19947;-78
2023/04/06 08:00:18;;;;;;;;;;;10.00;55.60;;;9.31;44.78;100617.09;5092957;28;20027;-76
2023/04/06 08:02:45;;;;;;;;;;;10.10;57.30;;;9.45;43.84;100624.09;5092785;28;20300;-75
2023/04/06 08:05:12;;;;;;;;;;;10.20;55.50;;;9.58;43.78;100626.81;5092581;28;20320;-75
2023/04/06 08:07:39;;;;;;;;;;;10.40;55.70;;;9.62;43.17;100620.06;5092491;28;20327;-75
2023/04/06 08:10:08;;;;;;;;;;;10.40;54.80;;;9.63;43.45;100618.22;5074296;28;19942;-76
2023/04/06 08:12:36;;;;;;;;;;;10.50;55.00;;;9.70;44.42;100619.84;5092603;28;20028;-75
2023/04/06 08:15:03;;;;;;;;;;;10.50;56.50;;;9.74;42.34;100615.78;5092485;28;20346;-75
2023/04/06 08:17:30;;;;;;;;;;;10.50;53.10;;;9.72;42.09;100614.34;5092358;28;19953;-76
2023/04/06 08:19:58;;;;;;;;;;;10.50;52.60;;;9.74;44.06;100613.13;5092359;28;19927;-78
2023/04/06 08:22:25;;;;;;;;;;;10.60;55.60;;;9.74;43.47;100617.63;5092408;28;19928;-75
2023/04/06 08:24:52;;;;;;;;;;;10.60;54.50;;;9.71;43.34;100621.53;5074034;28;19928;-75
2023/04/06 08:27:20;;;;;;;;;;;10.60;54.90;;;9.74;43.74;100621.09;5092205;28;20285;-75
2023/04/06 08:29:50;;;;;;;;;;;10.60;55.30;;;9.77;43.72;100614.56;5073985;28;19928;-74
2023/04/06 08:32:17;;;;;;;;;;;10.60;55.30;;;9.83;43.61;100620.94;5092102;28;20445;-76
2023/04/06 08:34:44;;;;;;;;;;;10.70;55.10;;;9.85;42.70;100617.03;5092134;28;19959;-75
2023/04/06 08:37:11;;;;;;;;;;;10.70;53.80;;;9.87;42.89;100615.00;5092122;28;20415;-77
2023/04/06 08:39:38;;;;;;;;;;;10.70;53.90;;;9.92;42.09;100617.03;5091844;28;19928;-75
2023/04/06 08:42:11;;;;;;;;;;;10.70;52.70;;;9.97;41.61;100611.94;5092043;28;19928;-76
2023/04/06 08:44:40;;;;;;;;;;;10.80;53.20;;;9.98;42.78;100609.06;5091859;28;19932;-75
2023/04/06 08:47:08;;;;;;;;;;;10.80;53.70;;;9.95;40.54;100606.78;5091456;28;19997;-76
2023/04/06 08:49:38;;;;;;;;;;;10.80;51.90;;;9.96;41.86;100608.44;5091796;28;20308;-76
2023/04/06 08:52:06;;;;;;;;;;;10.80;52.50;;;10.05;42.28;100604.56;5091457;28;19932;-76
2023/04/06 08:54:34;;;;;;;;;;;10.90;53.10;;;10.13;42.75;100611.50;5091681;28;19939;-75
2023/04/06 08:57:01;;;;;;;;;;;11.00;53.70;;;10.13;41.62;100606.19;5091723;28;19928;-76
2023/04/06 08:59:29;;;;;;;;;;;11.00;52.90;;;10.12;42.36;100601.88;5091478;28;19932;-74
2023/04/06 09:01:58;;;;;;;;;;;11.00;52.90;;;10.11;40.99;100605.59;5091553;28;20395;-75
2023/04/06 09:04:25;;;;;;;;;;;11.00;52.10;;;10.15;42.84;100595.31;5091543;28;19928;-76
2023/04/06 09:06:54;;;;;;;;;;;11.00;53.40;;;10.20;39.97;100587.53;5091460;28;19931;-75
2023/04/06 09:09:21;;;;;;;;;;;11.00;50.90;;;10.21;40.22;100600.66;5091295;28;19935;-76
2023/04/06 09:11:49;;;;;;;;;;;11.00;51.40;;;10.24;40.23;100600.25;5091293;28;19932;-76
2023/04/06 09:14:17;;;;;;;;;;;11.10;51.40;;;10.29;41.48;100594.31;5091410;28;20020;-75
2023/04/06 09:16:46;;;;;;;;;;;11.10;52.80;;;10.31;40.51;100595.75;5091232;28;19928;-75
2023/04/06 09:19:14;;;;;;;;;;;11.10;51.70;;;10.34;40.72;100599.03;5091130;28;19974;-75
2023/04/06 09:21:41;;;;;;;;;;;11.20;51.80;;;10.37;39.56;100601.28;5091133;28;20403;-77
2023/04/06 09:24:09;;;;;;;;;;;11.20;50.30;;;10.38;39.99;100603.75;5091401;28;19982;-75
2023/04/06 09:26:46;;;;;;;;;;;11.20;50.80;;;10.35;41.05;100595.38;5091193;28;20674;-75
2023/04/06 09:29:23;;;;;;;;;;;11.20;52.00;;;10.47;39.49;100596.38;5091044;28;19952;-76
2023/04/06 09:31:50;;;;;;;;;;;11.30;50.90;;;10.64;41.63;100594.91;5091052;28;19997;-76
2023/04/06 09:34:25;;;;;;;;;;;11.40;52.90;;;10.72;41.23;100589.34;5091033;28;19932;-75
2023/04/06 09:36:52;;;;;;;;;;;11.50;52.30;;;10.78;40.06;100585.84;5090881;28;19932;-75
2023/04/06 09:39:23;;;;;;;;;;;11.60;51.00;;;10.92;40.89;100596.47;5090800;28;19928;-76
2023/04/06 09:41:51;;;;;;;;;;;11.70;51.90;;;10.94;38.58;100583.75;5090611;28;19924;-76
2023/04/06 09:44:19;;;;;;;;;;;11.70;49.10;;;10.92;40.32;100585.78;5090799;28;19977;-74
2023/04/06 09:46:47;;;;;;;;;;;11.70;51.20;;;10.96;40.37;100590.50;5090641;28;20022;-77
2023/04/06 09:49:15;;;;;;;;;;;11.80;51.20;;;10.91;38.99;100587.63;5090294;28;20393;-75
2023/04/06 09:51:47;;;;;;;;;;;11.70;49.40;;;10.97;41.03;100584.13;5070421;28;19994;-75
2023/04/06 09:54:19;;;;;;;;;;;11.80;51.90;;;11.03;40.58;100580.63;5070487;28;19935;-77
2023/04/06 09:56:47;;;;;;;;;;;11.90;51.40;;;11.04;40.23;100576.09;5052174;28;19936;-77
2023/04/06 09:59:20;;;;;;;;;;;11.80;50.90;;;11.12;40.66;100575.03;5069531;28;19982;-74
2023/04/06 10:01:49;;;;;;;;;;;11.90;51.50;;;11.17;40.43;100584.03;5070334;28;19962;-77
2023/04/06 10:04:28;;;;;;;;;;;12.00;51.20;;;11.25;40.59;100573.13;5070311;28;19997;-76
2023/04/06 10:06:56;;;;;;;;;;;12.10;51.50;;;11.30;40.10;100573.31;5052355;28;19932;-77
2023/04/06 10:09:26;;;;;;;;;;;12.10;50.90;;;11.30;40.00;100572.50;5070181;28;19932;-77
2023/04/06 10:11:53;;;;;;;;;;;12.10;50.60;;;11.27;38.87;100571.09;5069972;28;19928;-76
2023/04/06 10:14:20;;;;;;;;;;;12.10;49.20;;;11.28;39.68;100563.88;5070291;28;19940;-75
2023/04/06 10:16:49;;;;;;;;;;;12.10;50.20;;;11.34;39.81;100561.16;5069868;28;19935;-77
2023/04/06 10:19:19;;;;;;;;;;;12.20;50.40;;;11.40;39.70;100569.34;5069923;28;19981;-77
2023/04/06 10:21:48;;;;;;;;;;;12.20;50.20;;;11.43;39.48;100563.59;5069880;28;19933;-74
2023/04/06 10:24:17;;;;;;;;;;;12.20;50.00;;;11.47;41.56;100562.97;5069996;28;20040;-74
2023/04/06 10:26:56;;;;;;;;;;;12.30;52.60;;;11.43;40.58;100564.41;5070007;28;19928;-76
2023/04/06 10:29:24;;;;;;;;;;;12.30;51.40;;;11.43;40.28;100574.28;5069840;28;19929;-75
2023/04/06 10:31:51;;;;;;;;;;;12.30;50.70;;;11.49;39.92;100565.41;5069819;28;19935;-76
2023/04/06 10:34:18;;;;;;;;;;;12.30;50.70;;;11.53;41.31;100569.28;5069877;28;19982;-75
2023/04/06 10:36:45;;;;;;;;;;;12.30;52.20;;;11.54;39.09;100568.25;5051551;28;20300;-76
2023/04/06 10:39:12;;;;;;;;;;;12.40;49.80;;;11.58;40.54;100558.78;5069649;28;19936;-76
2023/04/06 10:41:44;;;;;;;;;;;12.40;51.20;;;11.57;39.97;100562.50;5069660;28;19932;-75
2023/04/06 10:44:18;;;;;;;;;;;12.40;50.50;;;11.64;40.47;100563.25;5069824;28;19928;-75
2023/04/06 10:46:53;;;;;;;;;;;12.50;51.30;;;11.67;40.63;100562.84;5069511;28;19998;-77
2023/04/06 10:49:21;;;;;;;;;;;12.50;51.30;;;11.76;41.16;100558.03;5069658;28;20426;-76
2023/04/06 10:51:52;;;;;;;;;;;12.60;51.80;;;11.83;40.16;100556.16;5069509;28;19928;-75
2023/04/06 10:54:20;;;;;;;;;;;12.60;50.50;;;11.91;40.17;100558.56;5073313;28;19928;-76
2023/04/06 10:56:48;;;;;;;;;;;12.70;50.90;;;11.94;39.94;100549.28;5089640;28;19928;-75
2023/04/06 10:59:20;;;;;;;;;;;12.70;50.40;;;11.90;40.30;100551.56;5089591;28;19935;-78
2023/04/06 11:01:47;;;;;;;;;;;12.70;51.00;;;11.93;41.40;100545.81;5089714;28;19932;-76
2023/04/06 11:04:17;;;;;;;;;;;12.80;52.10;;;11.99;40.24;100546.78;5071634;28;19931;-76
2023/04/06 11:06:48;;;;;;;;;;;12.80;50.50;;;12.05;40.92;100543.22;5089571;28;20298;-76
2023/04/06 11:09:24;;;;;;;;;;;12.90;51.60;;;12.04;40.28;100544.28;5089643;28;19967;-75
2023/04/06 11:11:53;;;;;;;;;;;12.90;50.80;;;12.02;40.00;100547.16;5092537;28;19968;-76
2023/04/06 11:14:20;;;;;;;;;;;12.90;50.30;;;12.04;39.45;100539.75;5093704;28;19982;-75
2023/04/06 11:16:49;;;;;;;;;;;12.90;49.70;;;12.04;39.51;100552.28;5093521;28;20720;-74
2023/04/06 11:19:17;;;;;;;;;;;12.90;49.80;;;12.00;40.08;100548.41;5093446;28;19928;-75
2023/04/06 11:21:47;;;;;;;;;;;12.90;50.50;;;12.01;40.71;100544.72;5093441;28;19928;-76
2023/04/06 11:24:15;;;;;;;;;;;12.90;51.30;;;12.06;40.04;100547.56;5093509;28;19932;-75
2023/04/06 11:26:44;;;;;;;;;;;12.90;50.50;;;12.04;40.31;100550.44;5093305;28;19929;-77
2023/04/06 11:29:13;;;;;;;;;;;12.90;50.90;;;11.99;40.62;100538.75;5093300;28;19928;-75
2023/04/06 11:31:46;;;;;;;;;;;12.90;51.30;;;11.97;40.48;100538.19;5093306;28;19935;-77